| Record Date MM/DD/YYYY | Record Julian Date NNN day of the year | Air Temperature Max (Degrees Fahrenheit F) | Time Max Air Temperature HH:MM:SS This is the time of max air temperature standard time. | Air Temperature Min (Degrees Fahrenheit F) | Time Min Air Temperature HH:MM:SS This is the time of min air temperature standard time. | Air Temperature Observed (Degrees Fahrenheit F) This is an instantaneous reading for air temperature at 7:00:00 standard time. | Relative Humidity Max (Percent) | Time Max Relative Humidity HH:MM:SS This is the time of max relative humidity standard time. | Relative Humidity Min (Percent) | Time Min Relative Humidity HH:MM:SS This is the time of min relative humidity standard time. | Relative Humidity Observed (Percent) This is an instantaneous reading at 7:00:00 standard time. | Precipitation (Inches n.nn) total rain fall that occurred for the day. | Pan Evaporation (Inches n.nn) total evaporation that occured for the day. | Wind Run (Miles) Wind travel for the day. | Wind Speed (Miles Per Hour) Resultant / Average speed for the day. | Wind Direction (Degrees) Resultant Direction for the day | Solar Radiation (Langley's) that occurred for the day. | Soil Temperature Max at 2 inch depth (Degrees Fahrenheit F) that occurred during the day. | Time Max Soil temperature at 2 inches HH:MM:SS This is the time of max 2 inch soil temperature standard time. | Soil Temperature Min at 2 inch depth (Degrees Fahrenheit F) that occurred during the day. | Time Min Soil temperature at 2 inches HH:MM:SS This is the time of min 2 inch soil temperature standard time. | Soil Temperature Observed at 2 inch depth (Degrees Fahrenheit F) This is an instantaneous reading 2 inch soil temperature at 7:00:00 standard time. | Soil Temperature Max at 4 inch depth (Degrees Fahrenheit F) that occurred during the day. | Time Max Soil temperature at 4 inches HH:MM:SS This is the time of max 4 inch soil temperature standard time. | Soil Temperature Min at 4 inch depth (Degrees Fahrenheit F) that occurred during the day. | Time Min Soil temperature at 4 inches HH:MM:SS This is the time of min 4 inch soil temperature standard time. | Soil Temperature Observed at 4 inch depth (Degrees Fahrenheit F) This is an instantaneous reading 4 inch soil temperature at 7:00:00 standard time. | DD50 Degree Days 50 Fahrenheit. | Adjusted DD50 Degree Days 50 Fahrenheit adjusted for latitude. | DD60 Degree Days 60 Fahrenheit. |
|---|---|---|---|---|---|---|---|---|---|---|---|---|---|---|---|---|---|---|---|---|---|---|---|---|---|---|---|---|---|---|
| 04/02/2026 | 92 | 84 | 15:38:04 | 69 | 3:50:02 | 70 | 70 | 19:43:03 | 51 | 5:24:04 | 53 | 0 | 26.5 | 26.95 | 16.5 | |||||||||||||||
| 04/03/2026 | 93 | 87 | 14:38:00 | 69 | 6:33:02 | 69 | 70 | 23:13:04 | 48 | 15:13:02 | 50 | 0 | 28 | 26.98 | 18 | |||||||||||||||
| 04/04/2026 | 94 | 81 | 14:20:01 | 59 | 23:44:04 | 71 | 71 | 14:29:03 | 48 | 22:48:04 | 59 | 0.46 | 20 | 21.01 | 10 | |||||||||||||||
| 04/05/2026 | 95 | 65 | 16:15:01 | 52 | 6:15:04 | 53 | 75 | 6:48:05 | 49 | 16:20:03 | 74 | 0 | 8.5 | 9.54 | 0 | |||||||||||||||
| 04/06/2026 | 96 | 71 | 15:40:03 | 46 | 5:51:04 | 51 | 74 | 7:10:05 | 28 | 15:05:00 | 71 | 0 | 8.5 | 9.58 | 0 | |||||||||||||||
| 04/07/2026 | 97 | 77 | 15:57:01 | 48 | 4:07:02 | 55 | 73 | 5:32:03 | 31 | 15:18:04 | 72 | 0 | 12.5 | 13.61 | 2.5 | |||||||||||||||
| 04/08/2026 | 98 | 80 | 14:24:02 | 56 | 6:22:04 | 59 | 70 | 6:34:05 | 26 | 17:32:05 | 65 | 0 | 18 | 19.14 | 8 | |||||||||||||||
| 04/09/2026 | 99 | 81 | 15:45:03 | 57 | 5:43:03 | 62 | 69 | 6:02:02 | 37 | 15:48:01 | 64 | 0 | 19 | 20.17 | 9 | |||||||||||||||
| 04/10/2026 | 100 | 84 | 15:49:00 | 58 | 4:43:02 | 64 | 71 | 3:58:03 | 34 | 15:51:02 | 70 | 0 | 21 | 22.2 | 11 | |||||||||||||||
| 04/11/2026 | 101 | 86 | 15:02:04 | 60 | 5:25:04 | 66 | 70 | 1:31:00 | 36 | 15:45:05 | 68 | 0 | 23 | 24.23 | 13 | |||||||||||||||
| 04/12/2026 | 102 | 87 | 14:44:05 | 61 | 4:51:01 | 66 | 70 | 3:33:00 | 34 | 13:27:01 | 70 | 0 | 24 | 25.26 | 14 | |||||||||||||||
| 04/13/2026 | 103 | 84 | 15:19:04 | 70 | 5:49:00 | 71 | 69 | 8:33:02 | 51 | 17:21:05 | 66 | 0 | 27 | 27.29 | 17 | |||||||||||||||
| 04/14/2026 | 104 | 88 | 16:01:05 | 67 | 5:50:05 | 70 | 70 | 8:39:01 | 44 | 15:06:02 | 64 | 0 | 27.5 | 27.33 | 17.5 | |||||||||||||||
| 04/15/2026 | 105 | 87 | 14:53:05 | 67 | 6:14:03 | 69 | 70 | 7:35:05 | 37 | 14:21:02 | 68 | 0 | 27 | 27.36 | 17 | |||||||||||||||
| 04/16/2026 | 106 | 87 | 15:33:01 | 68 | 5:31:03 | 70 | 70 | 8:19:05 | 42 | 12:57:01 | 65 | 0 | 27.5 | 27.38 | 17.5 | |||||||||||||||
| 04/17/2026 | 107 | 89 | 13:31:03 | 68 | 5:21:02 | 70 | 70 | 1:27:05 | 41 | 14:40:01 | 65 | 0 | 28.5 | 27.41 | 18.5 | |||||||||||||||
| 04/18/2026 | 108 | 78 | 9:43:01 | 52 | 21:18:00 | 70 | 72 | 15:42:01 | 52 | 13:39:00 | 67 | 0.11 | 15 | 16.44 | 5 | |||||||||||||||
| 04/19/2026 | 109 | 72 | 15:18:03 | 47 | 5:44:01 | 51 | 74 | 9:12:00 | 27 | 15:56:03 | 62 | 0 | 9.5 | 10.97 | 0 | |||||||||||||||
| 04/20/2026 | 110 | 79 | 15:45:04 | 45 | 5:49:05 | 56 | 74 | 0:07:01 | 24 | 17:51:05 | 73 | 0 | 12 | 13.5 | 2 | |||||||||||||||
| 04/21/2026 | 111 | 84 | 14:03:04 | 50 | 4:07:03 | 60 | 73 | 2:17:01 | 18 | 14:32:01 | 71 | 0 | 17 | 18.53 | 7 | |||||||||||||||
| 04/22/2026 | 112 | 84 | 14:00:04 | 60 | 0:14:00 | 67 | 71 | 5:00:01 | 27 | 15:20:04 | 67 | 0 | 22 | 23.55 | 12 | |||||||||||||||
| 04/23/2026 | 113 | 86 | 13:45:05 | 66 | 6:04:00 | 68 | 70 | 3:05:00 | 33 | 15:07:02 | 64 | 0 | 26 | 27.58 | 16 | |||||||||||||||
| 04/24/2026 | 114 | 82 | 11:18:03 | 62 | 13:37:05 | 69 | 71 | 12:42:05 | 49 | 21:12:00 | 63 | 1.75 | 22 | 23.61 | 12 | |||||||||||||||
| 04/25/2026 | 115 | 81 | 16:20:00 | 62 | 4:38:00 | 64 | 70 | 12:52:00 | 45 | 7:16:01 | 45 | 0.26 | 21.5 | 23.13 | 11.5 | |||||||||||||||
| 04/26/2026 | 116 | 84 | 14:34:05 | 68 | 4:56:01 | 69 | 70 | 9:43:00 | 42 | 6:15:02 | 47 | 0.19 | 26 | 27.66 | 16 | |||||||||||||||
| 04/27/2026 | 117 | 84 | 15:34:00 | 72 | 5:00:05 | 73 | 70 | 12:46:01 | 43 | 5:12:04 | 46 | 0 | 28 | 27.69 | 18 | |||||||||||||||
| 04/28/2026 | 118 | 80 | 12:32:03 | 68 | 21:26:04 | 74 | 73 | 21:47:04 | 48 | 21:17:04 | 56 | 0.41 | 24 | 25.71 | 14 | |||||||||||||||
| 04/29/2026 | 119 | 73 | 7:00:02 | 64 | 0:00:00 | 73 | 71 | 13:20:05 | 48 | 6:33:01 | 49 | 0 | 18.5 | 20.24 | 8.5 | |||||||||||||||
| 04/30/2026 | 120 | 69 | 12:15:04 | 59 | 23:52:02 | 60 | 74 | 7:26:05 | 54 | 2:49:00 | 72 | 0.03 | 14 | 15.76 | 4 | |||||||||||||||
| 05/01/2026 | 121 | 65 | 14:57:01 | 56 | 5:29:00 | 58 | 73 | 1:33:04 | 58 | 14:52:00 | 69 | 0 | 10.5 | 12.28 | 0.5 | |||||||||||||||
| Average | 80.63 | 60.2 | 64.93 | 71.27 | 40.17 | 63.17 | 0.11 | 0 | 0 | 0 | 0 | 0 | 0 | 0 | 0 | 20.42 | 21.4 | 10.53 | ||||||||||||
| Total | 3.21 | 612.5 | 642.09 | 316 |